Time;durP1;ratioP1;P1;durP2;ratioP2;P2;SDS_P1;SDS_P2;PMS_P1;PMS_P2;Temp;Humidity;BMP_temperature;BMP_pressure;BME280_temperature;BME280_humidity;BME280_pressure;Samples;Min_cycle;Max_cycle;Signal;HPM_P1;HPM_P2
2022/08/23 00:02:25;;;;;;;4.23;2.70;;;25.90;44.00;;;;;;5000705;28;20453;-67
2022/08/23 00:04:54;;;;;;;2.97;2.67;;;25.80;44.00;;;;;;4999455;28;20944;-66
2022/08/23 00:07:40;;;;;;;2.50;2.30;;;25.90;44.10;;;;;;4999761;28;20432;-67
2022/08/23 00:10:10;;;;;;;6.10;3.40;;;25.90;44.10;;;;;;5000357;28;20468;-66
2022/08/23 00:12:40;;;;;;;3.37;3.00;;;25.90;44.10;;;;;;5008118;28;20461;-66
2022/08/23 00:15:11;;;;;;;3.13;2.77;;;25.90;44.00;;;;;;5007656;28;20873;-67
2022/08/23 00:17:41;;;;;;;3.00;2.47;;;25.90;44.00;;;;;;4989463;28;21176;-66
2022/08/23 00:20:12;;;;;;;2.87;2.50;;;25.90;44.00;;;;;;4998400;28;20470;-67
2022/08/23 00:22:42;;;;;;;2.63;2.43;;;25.90;44.00;;;;;;5004564;28;20456;-66
2022/08/23 00:25:14;;;;;;;4.93;2.50;;;25.90;44.10;;;;;;5007979;28;20500;-66
2022/08/23 00:27:42;;;;;;;3.00;2.80;;;25.90;44.10;;;;;;5001378;28;20445;-67
2022/08/23 00:30:18;;;;;;;4.60;2.70;;;25.90;44.20;;;;;;5005665;28;21094;-66
2022/08/23 00:32:47;;;;;;;3.63;2.60;;;25.90;44.20;;;;;;5001223;28;20456;-66
2022/08/23 00:35:16;;;;;;;2.70;2.50;;;25.90;44.20;;;;;;5007218;28;21135;-66
2022/08/23 00:37:57;;;;;;;3.23;2.80;;;25.80;44.20;;;;;;4995156;28;20477;-67
2022/08/23 00:40:49;;;;;;;3.43;2.87;;;25.90;44.30;;;;;;4995187;28;20466;-65
2022/08/23 00:49:05;;;;;;;2.80;2.60;;;25.80;44.20;;;;;;4996950;28;20995;-65
2022/08/23 00:51:38;;;;;;;3.10;2.80;;;25.90;44.30;;;;;;4995948;28;20488;-67
2022/08/23 00:54:23;;;;;;;3.13;2.60;;;25.90;44.30;;;;;;5007509;28;20426;-66
2022/08/23 00:56:53;;;;;;;2.80;2.57;;;25.80;44.20;;;;;;5002984;28;20551;-66
2022/08/23 00:59:23;;;;;;;3.20;2.90;;;25.80;44.30;;;;;;4996495;28;20463;-66
2022/08/23 01:01:51;;;;;;;4.30;2.90;;;25.90;44.30;;;;;;4994105;28;20544;-66
2022/08/23 01:04:20;;;;;;;3.23;2.93;;;25.90;44.40;;;;;;5002793;28;20445;-67
2022/08/23 01:06:54;;;;;;;2.63;2.43;;;25.80;44.30;;;;;;5011934;23;20567;-70
2022/08/23 01:09:24;;;;;;;3.10;2.80;;;25.80;44.30;;;;;;5010350;28;20447;-70
2022/08/23 01:11:58;;;;;;;4.80;3.33;;;25.80;44.30;;;;;;5011108;28;20467;-70
2022/08/23 01:14:32;;;;;;;3.37;2.70;;;25.80;44.30;;;;;;4993519;28;20433;-70
2022/08/23 01:17:05;;;;;;;3.30;3.00;;;25.80;44.20;;;;;;4992937;28;20461;-70
2022/08/23 01:19:37;;;;;;;5.10;2.80;;;25.80;44.30;;;;;;4992826;28;20438;-70
2022/08/23 01:22:16;;;;;;;3.23;2.93;;;25.80;44.30;;;;;;4988377;28;20458;-70
2022/08/23 01:24:47;;;;;;;4.63;2.97;;;25.80;44.30;;;;;;4992226;28;20488;-70
2022/08/23 01:27:39;;;;;;;3.03;2.73;;;25.80;44.30;;;;;;5002150;28;20441;-70
2022/08/23 01:30:11;;;;;;;2.87;2.67;;;25.80;44.30;;;;;;4992513;28;20442;-70
2022/08/23 01:32:45;;;;;;;2.93;2.73;;;25.80;44.30;;;;;;5005838;28;20868;-70
2022/08/23 01:35:15;;;;;;;3.30;3.00;;;25.80;44.30;;;;;;4997699;28;20496;-70
2022/08/23 01:37:45;;;;;;;3.60;3.30;;;25.80;44.30;;;;;;4991901;28;20903;-70
2022/08/23 01:40:15;;;;;;;3.97;2.87;;;25.80;44.30;;;;;;4999824;28;20855;-70
2022/08/23 01:42:44;;;;;;;3.10;2.73;;;25.80;44.40;;;;;;4999476;28;20468;-70
2022/08/23 01:45:14;;;;;;;3.37;3.07;;;25.80;44.30;;;;;;5006469;28;20449;-70
2022/08/23 01:47:42;;;;;;;3.20;2.90;;;25.80;44.40;;;;;;5006767;28;20940;-70
2022/08/23 01:50:13;;;;;;;2.70;2.50;;;25.80;44.40;;;;;;4996971;28;20492;-70
2022/08/23 01:52:43;;;;;;;2.60;2.40;;;25.80;44.50;;;;;;4999031;28;20465;-70
2022/08/23 01:55:20;;;;;;;3.47;3.17;;;25.70;44.30;;;;;;4998593;28;21062;-70
2022/08/23 01:57:55;;;;;;;3.23;2.93;;;25.70;44.40;;;;;;4998657;28;20575;-70
2022/08/23 02:00:28;;;;;;;3.43;3.10;;;25.80;44.50;;;;;;5003034;28;20460;-70
2022/08/23 02:02:58;;;;;;;3.50;2.80;;;25.70;44.40;;;;;;4990599;28;20616;-70
2022/08/23 02:05:27;;;;;;;2.60;2.23;;;25.70;44.40;;;;;;4997782;28;20987;-70
2022/08/23 02:08:59;;;;;;;3.93;3.17;;;25.80;44.40;;;;;;5009130;28;20971;-70
2022/08/23 02:10:46;;;;;;;3.23;2.93;;;25.80;44.40;;;;;;5009339;28;20457;-70
2022/08/23 02:13:15;;;;;;;3.10;2.80;;;25.80;44.40;;;;;;4999412;28;20465;-70
2022/08/23 02:15:45;;;;;;;3.33;2.80;;;25.70;44.40;;;;;;4993095;28;20800;-70
2022/08/23 02:18:14;;;;;;;4.00;2.97;;;25.70;44.50;;;;;;4996994;28;20465;-70
2022/08/23 02:20:45;;;;;;;3.00;2.60;;;25.70;44.60;;;;;;4992414;28;20557;-70
2022/08/23 02:23:13;;;;;;;5.23;3.37;;;25.70;44.50;;;;;;5005154;28;20460;-70
2022/08/23 02:25:42;;;;;;;3.50;2.70;;;25.70;44.50;;;;;;4996590;28;20957;-70
2022/08/23 02:28:12;;;;;;;3.40;3.10;;;25.70;44.60;;;;;;5000959;28;20476;-70
2022/08/23 02:30:43;;;;;;;2.90;2.40;;;25.70;44.60;;;;;;5000341;28;20449;-70
2022/08/23 02:33:14;;;;;;;2.80;2.60;;;25.70;44.50;;;;;;5004650;28;20564;-70
2022/08/23 02:35:44;;;;;;;3.13;2.83;;;25.70;44.60;;;;;;5006534;28;20504;-70
2022/08/23 02:38:13;;;;;;;3.20;2.73;;;25.70;44.50;;;;;;5008973;28;20452;-71
2022/08/23 02:40:42;;;;;;;2.70;2.50;;;25.70;44.60;;;;;;4999032;28;20527;-70
2022/08/23 02:43:13;;;;;;;3.20;2.90;;;25.70;44.60;;;;;;5001225;28;20517;-70
2022/08/23 02:45:42;;;;;;;3.10;2.83;;;25.70;44.70;;;;;;4997564;28;20996;-70
2022/08/23 02:48:11;;;;;;;3.47;3.20;;;25.70;44.60;;;;;;4996418;28;20490;-70
2022/08/23 02:50:52;;;;;;;2.80;2.50;;;25.70;44.60;;;;;;4995378;28;20462;-70
2022/08/23 02:53:20;;;;;;;4.17;2.80;;;25.70;44.70;;;;;;5005514;28;20616;-70
2022/08/23 02:55:49;;;;;;;2.83;2.57;;;25.70;44.70;;;;;;4999989;28;20535;-70
2022/08/23 02:58:19;;;;;;;3.03;2.73;;;25.70;44.60;;;;;;5007100;28;20899;-70
2022/08/23 03:00:48;;;;;;;3.73;3.37;;;25.70;44.60;;;;;;5007652;28;20476;-70
2022/08/23 03:03:17;;;;;;;3.97;2.90;;;25.70;44.50;;;;;;5005732;28;20461;-70
2022/08/23 03:05:49;;;;;;;3.80;2.97;;;25.70;44.70;;;;;;4999597;28;21040;-70
2022/08/23 03:08:22;;;;;;;3.07;2.73;;;25.70;44.70;;;;;;5003591;28;20440;-72
2022/08/23 03:10:52;;;;;;;3.50;3.03;;;25.70;44.80;;;;;;5005794;28;20556;-72
2022/08/23 03:13:22;;;;;;;4.43;3.33;;;25.70;44.70;;;;;;5005789;28;20592;-72
2022/08/23 03:15:51;;;;;;;3.30;3.00;;;25.70;44.80;;;;;;5005608;28;20564;-72
2022/08/23 03:18:20;;;;;;;2.80;2.60;;;25.70;44.80;;;;;;5007965;28;20560;-72
2022/08/23 03:20:48;;;;;;;3.03;2.83;;;25.70;44.80;;;;;;5003915;28;20469;-72
2022/08/23 03:23:17;;;;;;;3.50;3.30;;;25.70;44.80;;;;;;4998347;28;20936;-72
2022/08/23 03:25:45;;;;;;;3.70;3.40;;;25.60;44.80;;;;;;5005703;28;20457;-72
2022/08/23 03:28:23;;;;;;;3.23;3.00;;;25.60;44.70;;;;;;4999087;28;20537;-72
2022/08/23 03:30:52;;;;;;;3.57;3.20;;;25.60;44.70;;;;;;5005793;28;20449;-72
2022/08/23 03:33:21;;;;;;;4.33;3.17;;;25.60;44.60;;;;;;5005823;28;20488;-72
2022/08/23 03:35:51;;;;;;;4.70;3.10;;;25.60;44.60;;;;;;5000956;28;20458;-72
2022/08/23 03:38:19;;;;;;;3.20;3.00;;;25.60;44.90;;;;;;4986625;28;20473;-72
2022/08/23 03:40:51;;;;;;;3.50;3.17;;;25.60;44.70;;;;;;5005462;28;20497;-72
2022/08/23 03:43:19;;;;;;;3.90;3.60;;;25.60;44.70;;;;;;4988226;28;20996;-72
2022/08/23 03:45:49;;;;;;;3.20;2.90;;;25.60;44.80;;;;;;5009272;28;20471;-72
2022/08/23 03:48:18;;;;;;;4.33;3.70;;;25.60;44.70;;;;;;5009876;28;20441;-72
2022/08/23 03:50:46;;;;;;;3.73;2.97;;;25.50;44.70;;;;;;5007672;28;20571;-72
2022/08/23 03:53:15;;;;;;;3.60;2.80;;;25.60;44.70;;;;;;5008628;28;20483;-72
2022/08/23 03:55:46;;;;;;;3.50;3.20;;;25.60;44.80;;;;;;5014892;28;20447;-72
2022/08/23 03:58:17;;;;;;;3.47;3.17;;;25.50;44.80;;;;;;4997915;28;20972;-73
2022/08/23 04:00:45;;;;;;;3.30;3.00;;;25.60;45.20;;;;;;5000465;28;20503;-72
2022/08/23 04:03:16;;;;;;;3.03;2.77;;;25.60;44.80;;;;;;5002384;28;20471;-72
2022/08/23 04:06:01;;;;;;;3.23;2.97;;;25.50;44.70;;;;;;5007093;28;20492;-72
2022/08/23 04:08:31;;;;;;;3.10;2.90;;;25.60;44.80;;;;;;5002042;28;20955;-72
2022/08/23 04:11:01;;;;;;;2.93;2.73;;;25.50;44.70;;;;;;4995539;28;20529;-72
2022/08/23 04:13:30;;;;;;;3.30;3.00;;;25.50;44.70;;;;;;4964686;28;20481;-72
2022/08/23 04:16:02;;;;;;;3.73;2.70;;;25.50;44.80;;;;;;4989318;28;20982;-72
2022/08/23 04:18:33;;;;;;;4.00;3.70;;;25.50;44.70;;;;;;4981550;28;20807;-72
2022/08/23 04:21:06;;;;;;;3.70;3.40;;;25.50;44.70;;;;;;4987500;28;20462;-72
2022/08/23 04:23:34;;;;;;;3.07;2.87;;;25.50;44.70;;;;;;4988748;28;20470;-72
2022/08/23 04:26:04;;;;;;;3.67;3.37;;;25.50;44.80;;;;;;4988606;28;20478;-72
2022/08/23 04:28:37;;;;;;;3.37;3.07;;;25.50;44.80;;;;;;4989445;28;20458;-72
2022/08/23 04:31:05;;;;;;;3.40;3.10;;;25.50;44.70;;;;;;4980807;28;20990;-72
2022/08/23 04:33:36;;;;;;;3.83;3.53;;;25.50;44.70;;;;;;4984994;28;20544;-72
2022/08/23 04:36:08;;;;;;;3.43;3.13;;;25.50;44.80;;;;;;4982501;28;20888;-72
2022/08/23 04:38:37;;;;;;;3.93;3.53;;;25.50;44.80;;;;;;4989012;28;20458;-72
2022/08/23 04:43:56;;;;;;;3.33;3.13;;;25.50;44.80;;;;;;4978540;28;20502;-72
2022/08/23 04:46:26;;;;;;;4.00;3.60;;;25.40;44.70;;;;;;4986490;28;20484;-72
2022/08/23 04:48:58;;;;;;;3.37;3.07;;;25.50;44.80;;;;;;4989278;28;20437;-72
2022/08/23 04:51:28;;;;;;;4.00;3.20;;;25.40;44.70;;;;;;4986693;28;20494;-72
2022/08/23 04:53:56;;;;;;;4.30;3.17;;;25.40;44.70;;;;;;4988272;28;20852;-72
2022/08/23 04:56:38;;;;;;;3.40;3.10;;;25.40;44.80;;;;;;4989459;28;20478;-72
2022/08/23 04:59:08;;;;;;;3.67;3.37;;;25.40;44.80;;;;;;4987852;28;21018;-72
2022/08/23 05:01:42;;;;;;;3.83;3.53;;;25.40;44.80;;;;;;4974900;28;20925;-72
2022/08/23 05:04:12;;;;;;;4.10;3.13;;;25.40;44.80;;;;;;4976402;28;20496;-72
2022/08/23 05:06:40;;;;;;;3.60;3.30;;;25.40;44.80;;;;;;4986262;28;20474;-72
2022/08/23 05:09:09;;;;;;;3.93;3.63;;;25.40;44.80;;;;;;4989246;28;20884;-72
2022/08/23 05:11:38;;;;;;;3.37;3.07;;;25.40;44.80;;;;;;4987760;28;20539;-72
2022/08/23 05:14:07;;;;;;;3.50;3.17;;;25.40;44.80;;;;;;4987039;28;20454;-72
2022/08/23 05:16:35;;;;;;;3.33;3.03;;;25.40;44.80;;;;;;4985536;28;20834;-72
2022/08/23 05:19:10;;;;;;;3.27;3.00;;;25.40;44.90;;;;;;4988362;28;20477;-72
2022/08/23 05:21:44;;;;;;;3.33;3.03;;;25.40;44.90;;;;;;4987077;28;20467;-72
2022/08/23 05:24:13;;;;;;;4.13;3.73;;;25.40;45.00;;;;;;4980071;28;20551;-72
2022/08/23 05:26:43;;;;;;;3.30;3.10;;;25.40;44.90;;;;;;4986055;28;20469;-72
2022/08/23 05:29:12;;;;;;;4.03;3.73;;;25.40;44.90;;;;;;4988104;28;20441;-72
2022/08/23 05:31:45;;;;;;;3.90;3.20;;;25.30;44.90;;;;;;4985642;28;20481;-72
2022/08/23 05:34:18;;;;;;;3.80;3.50;;;25.40;44.80;;;;;;4987443;28;20434;-72
2022/08/23 05:36:56;;;;;;;3.23;2.93;;;25.40;44.80;;;;;;4976897;28;20465;-72
2022/08/23 05:39:30;;;;;;;3.73;2.97;;;25.30;44.80;;;;;;4986528;28;20458;-72
2022/08/23 05:42:12;;;;;;;3.77;3.33;;;25.30;44.80;;;;;;4987449;28;20462;-72
2022/08/23 05:44:41;;;;;;;3.20;2.90;;;25.30;44.80;;;;;;4978956;28;21210;-72
2022/08/23 05:47:14;;;;;;;3.90;3.50;;;25.30;44.90;;;;;;4985798;28;20488;-72
2022/08/23 05:50:10;;;;;;;3.57;3.27;;;25.40;44.90;;;;;;4971904;28;20458;-72
2022/08/23 05:52:40;;;;;;;3.00;2.70;;;25.30;44.90;;;;;;4987272;28;20465;-72
2022/08/23 05:55:09;;;;;;;2.93;2.73;;;25.30;44.90;;;;;;4984824;28;20442;-72
2022/08/23 05:57:40;;;;;;;3.40;3.10;;;25.30;44.90;;;;;;4986180;28;20438;-72
2022/08/23 06:00:13;;;;;;;3.40;3.10;;;25.30;44.90;;;;;;4984216;28;20454;-72
2022/08/23 06:02:50;;;;;;;3.57;3.27;;;25.30;45.00;;;;;;4987342;28;20466;-72
2022/08/23 06:05:21;;;;;;;3.10;2.90;;;25.30;45.00;;;;;;4984072;28;20557;-72
2022/08/23 06:07:51;;;;;;;3.40;3.10;;;25.30;45.10;;;;;;4987921;28;20464;-72
2022/08/23 06:10:23;;;;;;;4.53;3.17;;;25.20;45.00;;;;;;4987904;28;20456;-72
2022/08/23 06:12:58;;;;;;;3.40;3.10;;;25.30;45.00;;;;;;4985444;28;20461;-72
2022/08/23 06:15:27;;;;;;;4.10;2.70;;;25.30;45.00;;;;;;4986028;28;20445;-72
2022/08/23 06:17:55;;;;;;;3.83;3.40;;;25.30;45.10;;;;;;4982287;28;20442;-72
2022/08/23 06:20:25;;;;;;;4.90;3.67;;;25.30;45.10;;;;;;4985351;28;20481;-72
2022/08/23 06:22:58;;;;;;;3.20;3.00;;;25.30;45.10;;;;;;4987349;28;20460;-72
2022/08/23 06:25:26;;;;;;;3.30;2.83;;;25.30;45.10;;;;;;4980165;28;20496;-72
2022/08/23 06:28:07;;;;;;;3.23;3.03;;;25.30;45.10;;;;;;4987034;28;20426;-72
2022/08/23 06:30:38;;;;;;;3.60;3.40;;;25.30;45.10;;;;;;4983578;28;20482;-72
2022/08/23 06:33:26;;;;;;;3.47;3.17;;;25.20;45.10;;;;;;4985695;28;20548;-72
2022/08/23 06:36:22;;;;;;;3.63;3.00;;;25.20;45.10;;;;;;4979291;28;20458;-72
2022/08/23 06:39:17;;;;;;;3.87;3.10;;;25.20;46.50;;;;;;4980056;28;20441;-72
2022/08/23 06:42:16;;;;;;;3.47;3.17;;;25.20;45.20;;;;;;4986638;28;20504;-72
2022/08/23 06:45:06;;;;;;;3.50;3.10;;;25.20;45.20;;;;;;4985741;28;20437;-72
2022/08/23 06:47:42;;;;;;;3.53;3.23;;;25.20;45.20;;;;;;4979616;28;20441;-72
2022/08/23 06:50:10;;;;;;;3.50;3.20;;;25.20;45.30;;;;;;4974919;28;20518;-72
2022/08/23 06:52:59;;;;;;;4.00;3.20;;;25.20;45.30;;;;;;4982216;28;20464;-72
2022/08/23 06:55:44;;;;;;;3.60;3.30;;;25.20;45.30;;;;;;4986796;28;20539;-72
2022/08/23 06:58:21;;;;;;;3.00;2.80;;;25.20;45.40;;;;;;4979220;28;20435;-72
2022/08/23 07:01:09;;;;;;;4.70;2.97;;;25.20;45.50;;;;;;4994355;28;20465;-72
2022/08/23 07:04:06;;;;;;;5.20;3.30;;;25.20;45.50;;;;;;5005412;28;20448;-72
2022/08/23 07:09:40;;;;;;;3.60;3.30;;;25.10;45.50;;;;;;4986252;28;20442;-52
2022/08/23 07:12:09;;;;;;;3.63;2.90;;;25.20;45.50;;;;;;4997548;28;20848;-53
2022/08/23 07:14:42;;;;;;;3.80;3.20;;;25.20;45.60;;;;;;4976057;28;20458;-53
2022/08/23 07:17:13;;;;;;;3.30;3.10;;;25.20;45.60;;;;;;4976863;28;20533;-53
2022/08/23 07:19:43;;;;;;;3.30;3.00;;;25.20;45.70;;;;;;4980179;28;20470;-53
2022/08/23 07:22:12;;;;;;;3.87;3.23;;;25.20;45.80;;;;;;4997289;28;20429;-53
2022/08/23 07:24:44;;;;;;;3.70;3.40;;;25.10;45.60;;;;;;4968501;28;20859;-52
2022/08/23 07:27:14;;;;;;;3.20;3.00;;;25.20;45.80;;;;;;4973149;28;20443;-54
2022/08/23 07:30:01;;;;;;;4.10;3.70;;;25.10;45.60;;;;;;4968449;28;20525;-54
2022/08/23 07:32:31;;;;;;;3.67;3.20;;;25.20;45.70;;;;;;4975460;28;20438;-52
2022/08/23 07:35:08;;;;;;;3.10;2.90;;;25.10;45.60;;;;;;4971587;28;20467;-53
2022/08/23 07:37:41;;;;;;;2.57;2.37;;;25.20;45.80;;;;;;4989489;28;20439;-53
2022/08/23 07:40:12;;;;;;;3.10;2.80;;;25.10;45.70;;;;;;4973515;28;20517;-53
2022/08/23 07:42:50;;;;;;;3.30;3.00;;;25.10;45.70;;;;;;4972058;28;20556;-54
2022/08/23 07:45:18;;;;;;;3.10;2.90;;;25.10;45.70;;;;;;4973045;28;20843;-53
2022/08/23 07:47:54;;;;;;;4.50;3.40;;;25.10;45.70;;;;;;4984218;28;21022;-51
2022/08/23 07:50:25;;;;;;;3.60;2.90;;;25.20;45.90;;;;;;4974024;28;20442;-52
2022/08/23 07:53:01;;;;;;;3.57;3.13;;;25.20;45.60;;;;;;4979546;28;20437;-53
2022/08/23 07:55:32;;;;;;;3.23;2.70;;;25.20;45.60;;;;;;4982847;28;20430;-54
2022/08/23 07:58:19;;;;;;;3.43;3.10;;;25.20;45.60;;;;;;4971954;28;20442;-54
2022/08/23 08:00:56;;;;;;;4.50;2.97;;;25.20;45.60;;;;;;4972338;28;21036;-53
2022/08/23 08:03:40;;;;;;;3.20;3.00;;;25.20;45.60;;;;;;4992070;28;20498;-53
2022/08/23 08:06:31;;;;;;;3.43;3.23;;;25.20;45.70;;;;;;4967720;28;20470;-52
2022/08/23 08:09:00;;;;;;;3.60;2.80;;;25.20;45.70;;;;;;4975854;28;20443;-53
2022/08/23 08:11:33;;;;;;;3.13;2.83;;;25.20;45.80;;;;;;4981189;28;20570;-53
2022/08/23 08:14:07;;;;;;;3.47;2.70;;;25.20;45.90;;;;;;4978742;28;20549;-54
2022/08/23 08:16:42;;;;;;;2.83;2.57;;;25.20;45.80;;;;;;4996299;28;20844;-53
2022/08/23 08:19:14;;;;;;;3.50;2.90;;;25.20;45.90;;;;;;4973074;28;20431;-52
2022/08/23 08:22:04;;;;;;;3.07;2.80;;;25.20;45.80;;;;;;4968801;28;20498;-54
2022/08/23 08:24:53;;;;;;;4.70;3.33;;;25.20;45.70;;;;;;4972169;28;20476;-52
2022/08/23 08:27:23;;;;;;;3.40;3.07;;;25.20;45.80;;;;;;4978837;28;20454;-54
2022/08/23 08:29:52;;;;;;;3.03;2.83;;;25.20;45.70;;;;;;4972566;28;20477;-54
2022/08/23 08:32:21;;;;;;;3.63;3.33;;;25.20;45.90;;;;;;4972120;28;20482;-52
2022/08/23 08:34:50;;;;;;;3.13;2.83;;;25.20;45.70;;;;;;4975978;28;20455;-53
2022/08/23 08:37:18;;;;;;;2.77;2.53;;;25.20;45.80;;;;;;4986061;28;20530;-53
2022/08/23 08:39:47;;;;;;;3.20;2.83;;;25.20;45.90;;;;;;4979334;28;21020;-52
2022/08/23 08:42:33;;;;;;;3.07;2.80;;;25.20;45.80;;;;;;4969099;28;20497;-53
2022/08/23 08:45:09;;;;;;;3.20;2.90;;;25.20;45.80;;;;;;4973392;28;20460;-53
2022/08/23 08:47:45;;;;;;;2.40;2.20;;;25.20;45.80;;;;;;4973089;28;20462;-53
2022/08/23 08:50:22;;;;;;;2.80;2.60;;;25.20;45.80;;;;;;4966951;28;20479;-53
2022/08/23 08:53:00;;;;;;;3.20;2.83;;;25.20;45.90;;;;;;4965436;28;20446;-54
2022/08/23 08:55:50;;;;;;;3.50;3.20;;;25.20;45.90;;;;;;4973347;28;20486;-53
2022/08/23 08:58:27;;;;;;;4.60;2.77;;;25.20;45.80;;;;;;4970253;28;20439;-53
2022/08/23 09:00:57;;;;;;;2.90;2.70;;;25.20;45.80;;;;;;4971773;28;20861;-52
2022/08/23 09:03:33;;;;;;;2.93;2.73;;;25.20;45.90;;;;;;4966665;28;20993;-51
2022/08/23 09:06:07;;;;;;;3.10;2.60;;;25.20;45.90;;;;;;4977167;28;20977;-54
2022/08/23 09:08:53;;;;;;;3.83;3.20;;;25.10;45.80;;;;;;4971707;28;20454;-51
2022/08/23 09:11:33;;;;;;;3.27;2.97;;;25.20;45.70;;;;;;4974668;28;20470;-54
2022/08/23 09:14:36;;;;;;;3.40;2.60;;;25.20;45.80;;;;;;4977136;28;20458;-52
2022/08/23 09:17:15;;;;;;;2.80;2.60;;;25.20;45.90;;;;;;4978826;28;20472;-53
2022/08/23 09:19:48;;;;;;;3.80;2.90;;;25.20;45.90;;;;;;4975319;28;20466;-53
2022/08/23 09:22:25;;;;;;;2.77;2.40;;;25.20;45.90;;;;;;4979362;28;20469;-52
2022/08/23 09:24:56;;;;;;;3.70;2.80;;;25.20;45.90;;;;;;4984874;28;20985;-53
2022/08/23 09:27:28;;;;;;;3.50;2.80;;;25.20;45.90;;;;;;4971562;28;20479;-53
2022/08/23 09:30:09;;;;;;;2.70;2.50;;;25.20;46.00;;;;;;4985213;28;20896;-53
2022/08/23 09:32:40;;;;;;;3.00;2.70;;;25.20;45.90;;;;;;4977041;28;20461;-52
2022/08/23 09:35:16;;;;;;;2.93;2.73;;;25.20;45.80;;;;;;4976486;28;20478;-51
2022/08/23 09:37:58;;;;;;;3.10;2.50;;;25.20;45.70;;;;;;4986356;28;20444;-52
2022/08/23 09:40:36;;;;;;;2.50;2.30;;;25.20;45.80;;;;;;4980856;28;20477;-52
2022/08/23 09:43:16;;;;;;;3.80;2.97;;;25.20;45.80;;;;;;4975314;28;20531;-53
2022/08/23 09:45:58;;;;;;;2.77;2.57;;;25.20;45.90;;;;;;4966547;28;20531;-53
2022/08/23 09:48:39;;;;;;;3.70;2.30;;;25.20;45.80;;;;;;4976005;28;20457;-51
2022/08/23 09:51:18;;;;;;;5.60;2.70;;;25.20;45.80;;;;;;4976363;28;20585;-53
2022/08/23 09:53:50;;;;;;;2.30;2.10;;;25.20;45.90;;;;;;4982085;28;20454;-53
2022/08/23 09:56:25;;;;;;;4.10;2.23;;;25.20;45.90;;;;;;4986203;28;20469;-53
2022/08/23 09:58:58;;;;;;;3.07;2.63;;;25.20;45.90;;;;;;4970828;28;20501;-54
2022/08/23 10:01:49;;;;;;;3.20;2.43;;;25.20;45.80;;;;;;4973355;28;20476;-53
2022/08/23 10:04:24;;;;;;;3.27;2.97;;;25.20;45.80;;;;;;4972783;28;20988;-54
2022/08/23 10:06:54;;;;;;;3.70;2.63;;;25.20;45.60;;;;;;4964056;28;20467;-52
2022/08/23 10:09:26;;;;;;;4.10;2.30;;;25.20;45.60;;;;;;4978843;28;20450;-53
2022/08/23 10:11:57;;;;;;;4.80;2.40;;;25.20;45.80;;;;;;4975080;28;20512;-53
2022/08/23 10:14:28;;;;;;;3.10;2.47;;;25.20;45.60;;;;;;4973649;28;20467;-53
2022/08/23 10:17:09;;;;;;;2.63;2.43;;;25.20;45.60;;;;;;4974934;28;20462;-51
2022/08/23 10:19:44;;;;;;;2.63;2.43;;;25.20;45.70;;;;;;4976110;28;21789;-52
2022/08/23 10:22:20;;;;;;;2.60;2.40;;;25.20;45.70;;;;;;4970564;28;20465;-53
2022/08/23 10:25:25;;;;;;;3.20;2.50;;;25.20;45.70;;;;;;4968183;28;20504;-53
2022/08/23 10:30:57;;;;;;;3.00;2.70;;;25.20;45.80;;;;;;4970211;28;20480;-53
2022/08/23 10:33:40;;;;;;;2.87;2.00;;;25.20;45.80;;;;;;4971758;28;20521;-53
2022/08/23 10:36:15;;;;;;;2.40;2.20;;;25.20;45.80;;;;;;4978643;28;20473;-53
2022/08/23 10:38:47;;;;;;;4.10;2.57;;;25.20;45.80;;;;;;4982112;28;20537;-53
2022/08/23 10:41:33;;;;;;;3.00;2.20;;;25.20;45.80;;;;;;4973524;28;20479;-53
2022/08/23 10:44:28;;;;;;;3.17;2.50;;;25.20;45.80;;;;;;4982678;28;20454;-53
2022/08/23 10:47:16;;;;;;;2.87;2.30;;;25.20;45.80;;;;;;4973812;28;20488;-51
2022/08/23 10:49:50;;;;;;;2.43;2.23;;;25.20;45.90;;;;;;4958339;28;20444;-53
2022/08/23 10:52:23;;;;;;;2.80;2.57;;;25.20;45.90;;;;;;4979299;28;20434;-53
2022/08/23 10:55:05;;;;;;;3.40;2.30;;;25.20;45.90;;;;;;4991679;28;20470;-52
2022/08/23 10:57:40;;;;;;;2.70;2.00;;;25.20;45.90;;;;;;5009232;28;20480;-53
2022/08/23 11:00:15;;;;;;;2.40;2.20;;;25.20;45.80;;;;;;4977786;28;20511;-52
2022/08/23 11:02:52;;;;;;;2.50;2.30;;;25.20;45.80;;;;;;4969178;28;20876;-52
2022/08/23 11:05:29;;;;;;;2.70;2.50;;;25.20;45.90;;;;;;4980951;28;20778;-53
2022/08/23 11:08:05;;;;;;;3.30;2.50;;;25.20;45.80;;;;;;4980244;28;20537;-52
2022/08/23 11:10:47;;;;;;;2.77;2.07;;;25.20;45.70;;;;;;4985551;28;20466;-53
2022/08/23 11:13:33;;;;;;;2.70;2.50;;;25.20;45.80;;;;;;4973532;28;20521;-52
2022/08/23 11:16:13;;;;;;;2.53;2.33;;;25.20;45.80;;;;;;4971996;28;20501;-53
2022/08/23 11:18:46;;;;;;;2.27;1.90;;;25.20;45.90;;;;;;4966473;28;20438;-52
2022/08/23 11:21:46;;;;;;;2.50;2.30;;;25.20;45.80;;;;;;4971480;28;20508;-53
2022/08/23 11:24:49;;;;;;;2.70;2.40;;;25.20;45.80;;;;;;4978082;28;20471;-53
2022/08/23 11:27:31;;;;;;;2.77;2.57;;;25.20;45.90;;;;;;4981874;28;20453;-53
2022/08/23 11:30:33;;;;;;;2.73;2.53;;;25.20;45.90;;;;;;4976434;28;20946;-53
2022/08/23 11:33:15;;;;;;;2.60;2.40;;;25.20;47.10;;;;;;4981567;28;20438;-52
2022/08/23 11:35:47;;;;;;;2.90;2.50;;;25.20;45.80;;;;;;4974451;28;20580;-52
2022/08/23 11:38:56;;;;;;;2.67;2.47;;;25.20;45.90;;;;;;4976737;28;20509;-52
2022/08/23 11:41:28;;;;;;;3.70;2.60;;;25.20;45.90;;;;;;4972318;28;20480;-54
2022/08/23 11:44:27;;;;;;;2.40;2.20;;;25.20;45.90;;;;;;4985367;28;21101;-52
2022/08/23 11:47:03;;;;;;;2.33;2.10;;;25.30;46.00;;;;;;4979143;28;20455;-53
2022/08/23 11:49:57;;;;;;;2.90;2.30;;;25.30;46.00;;;;;;4970053;28;20485;-53
2022/08/23 11:52:38;;;;;;;2.63;2.10;;;25.30;46.00;;;;;;4976319;28;20467;-52
2022/08/23 11:55:25;;;;;;;2.70;2.30;;;25.30;46.00;;;;;;4982943;28;20546;-52
2022/08/23 11:58:11;;;;;;;3.17;1.93;;;25.30;45.90;;;;;;4971502;28;20532;-54
2022/08/23 12:01:06;;;;;;;2.60;2.17;;;25.30;45.90;;;;;;4972698;28;20476;-53
2022/08/23 12:03:43;;;;;;;2.43;2.10;;;25.30;45.90;;;;;;4974484;28;20482;-52
2022/08/23 12:06:45;;;;;;;3.03;2.37;;;25.30;45.90;;;;;;4982558;28;21034;-53
2022/08/23 12:09:56;;;;;;;2.63;2.07;;;25.30;46.00;;;;;;4879570;29;20446;-53
2022/08/23 12:12:32;;;;;;;4.50;2.00;;;25.30;45.90;;;;;;4972835;28;20462;-53
2022/08/23 12:15:10;;;;;;;3.10;2.30;;;25.30;45.90;;;;;;4962634;28;20523;-51
2022/08/23 12:18:14;;;;;;;2.20;2.00;;;25.30;46.00;;;;;;4983859;28;20442;-53
2022/08/23 12:20:47;;;;;;;2.43;2.23;;;25.30;46.00;;;;;;4969809;28;20525;-53
2022/08/23 12:23:21;;;;;;;3.93;2.47;;;25.30;46.00;;;;;;4976120;28;20574;-53
2022/08/23 12:26:07;;;;;;;2.47;2.20;;;25.30;46.00;;;;;;4971556;28;20466;-52
2022/08/23 12:28:43;;;;;;;2.00;1.90;;;25.40;46.10;;;;;;4972390;28;20446;-53
2022/08/23 12:31:31;;;;;;;2.13;2.00;;;25.30;46.10;;;;;;4983812;28;20566;-53
2022/08/23 12:34:23;;;;;;;4.70;2.23;;;25.40;46.00;;;;;;4965814;28;20455;-53
2022/08/23 12:37:06;;;;;;;2.40;2.10;;;25.40;46.20;;;;;;4971247;28;20530;-52
2022/08/23 12:39:39;;;;;;;2.47;2.27;;;25.40;46.10;;;;;;4972082;28;20494;-53
2022/08/23 12:42:14;;;;;;;3.53;2.00;;;25.40;46.10;;;;;;4971166;28;20455;-52
2022/08/23 12:44:47;;;;;;;1.93;1.73;;;25.40;46.20;;;;;;4979572;28;20473;-53
2022/08/23 12:47:17;;;;;;;2.20;2.00;;;25.40;46.20;;;;;;4980242;28;20971;-52
2022/08/23 12:49:56;;;;;;;2.07;1.67;;;25.40;46.20;;;;;;4962784;28;20789;-53
2022/08/23 12:52:27;;;;;;;3.00;1.93;;;25.40;46.10;;;;;;4982127;28;20438;-53
2022/08/23 12:54:56;;;;;;;2.40;2.20;;;25.40;46.20;;;;;;4975557;28;20462;-53
2022/08/23 12:57:32;;;;;;;4.13;2.10;;;25.40;46.20;;;;;;4978187;28;20498;-53
2022/08/23 13:00:10;;;;;;;3.10;1.87;;;25.40;46.20;;;;;;4970456;28;20466;-52
2022/08/23 13:02:52;;;;;;;3.90;2.13;;;25.40;46.20;;;;;;4964106;28;20430;-53
2022/08/23 13:05:37;;;;;;;2.20;1.83;;;25.40;46.20;;;;;;4983905;28;20953;-53
2022/08/23 13:08:11;;;;;;;2.17;1.97;;;25.40;46.20;;;;;;5001021;23;20548;-91
2022/08/23 13:10:42;;;;;;;2.50;2.20;;;25.40;46.20;;;;;;5010829;28;20543;-91
2022/08/23 13:13:12;;;;;;;2.13;1.93;;;25.40;46.10;;;;;;5012458;28;20921;-91
2022/08/23 13:15:47;;;;;;;1.93;1.83;;;25.40;46.10;;;;;;5013598;28;20469;-92
2022/08/23 13:18:32;;;;;;;2.60;2.30;;;25.40;46.20;;;;;;5024672;28;20463;-92
2022/08/23 13:21:25;;;;;;;2.40;2.20;;;25.50;46.20;;;;;;5019573;28;20466;-94
2022/08/23 13:23:56;;;;;;;1.93;1.83;;;25.50;46.30;;;;;;5033726;28;20491;-92
2022/08/23 13:26:35;;;;;;;2.30;2.10;;;25.50;46.20;;;;;;5033010;28;20464;-92
2022/08/23 13:29:09;;;;;;;3.97;2.10;;;25.50;46.20;;;;;;5029906;28;20554;-92
2022/08/23 13:32:00;;;;;;;2.30;2.10;;;25.50;46.20;;;;;;5031842;28;20502;-92
2022/08/23 13:34:37;;;;;;;2.37;2.17;;;25.50;46.20;;;;;;5031505;28;20432;-93
2022/08/23 13:37:18;;;;;;;2.23;2.03;;;25.50;46.20;;;;;;5030737;28;20480;-93
2022/08/23 13:39:48;;;;;;;2.03;1.60;;;25.50;46.20;;;;;;5025143;28;20463;-93
2022/08/23 13:42:26;;;;;;;2.00;1.80;;;25.50;46.20;;;;;;5033338;28;20929;-93
2022/08/23 13:44:54;;;;;;;3.23;2.20;;;25.60;46.20;;;;;;5032576;28;20785;-92
2022/08/23 13:47:25;;;;;;;1.90;1.80;;;25.60;46.30;;;;;;5033280;28;20462;-92